Time;durP1;ratioP1;P1;durP2;ratioP2;P2;SDS_P1;SDS_P2;PMS_P1;PMS_P2;Temp;Humidity;BMP_temperature;BMP_pressure;BME280_temperature;BME280_humidity;BME280_pressure;Samples;Min_cycle;Max_cycle;Signal;HPM_P1;HPM_P2
2023/12/21 00:01:05;;;;;;;1.02;0.93;;;;;;;;;;5052115;28;20025;-79
2023/12/21 00:03:33;;;;;;;4.03;2.95;;;;;;;;;;5050333;28;20366;-80
2023/12/21 00:05:59;;;;;;;1.88;1.58;;;;;;;;;;5054451;28;20033;-77
2023/12/21 00:08:27;;;;;;;2.92;1.98;;;;;;;;;;5054772;28;20083;-81
2023/12/21 00:10:52;;;;;;;1.60;1.50;;;;;;;;;;5054268;28;20354;-81
2023/12/21 00:13:22;;;;;;;3.10;2.28;;;;;;;;;;5054390;28;20029;-80
2023/12/21 00:15:47;;;;;;;4.68;4.25;;;;;;;;;;5054284;28;20389;-81
2023/12/21 00:18:13;;;;;;;6.07;4.03;;;;;;;;;;5051180;28;20029;-82
2023/12/21 00:20:38;;;;;;;3.03;1.77;;;;;;;;;;5051708;28;20052;-81
2023/12/21 00:23:04;;;;;;;4.85;2.95;;;;;;;;;;5054864;28;20040;-79
2023/12/21 00:25:29;;;;;;;2.47;1.98;;;;;;;;;;5055372;28;20472;-81
2023/12/21 00:27:55;;;;;;;2.42;1.80;;;;;;;;;;5055570;28;20128;-80
2023/12/21 00:30:21;;;;;;;3.20;2.15;;;;;;;;;;5050480;28;20087;-79
2023/12/21 00:32:50;;;;;;;1.77;1.60;;;;;;;;;;5052879;28;20653;-80
2023/12/21 00:35:15;;;;;;;3.13;2.08;;;;;;;;;;5086496;28;20029;-81
2023/12/21 00:37:41;;;;;;;1.63;1.35;;;;;;;;;;5054025;28;20078;-79
2023/12/21 00:40:07;;;;;;;4.22;1.95;;;;;;;;;;5053110;28;20033;-82
2023/12/21 00:42:33;;;;;;;1.40;1.30;;;;;;;;;;5056019;28;20032;-80
2023/12/21 00:44:58;;;;;;;1.23;1.13;;;;;;;;;;5053832;28;20020;-79
2023/12/21 00:47:24;;;;;;;2.05;1.63;;;;;;;;;;5054969;28;20036;-79
2023/12/21 00:49:50;;;;;;;1.48;1.23;;;;;;;;;;5052266;28;20518;-80
2023/12/21 00:52:15;;;;;;;1.73;1.63;;;;;;;;;;5050267;28;20033;-79
2023/12/21 00:54:41;;;;;;;4.30;2.67;;;;;;;;;;5054752;28;20031;-81
2023/12/21 00:57:07;;;;;;;0.82;0.82;;;;;;;;;;5052006;28;20152;-81
2023/12/21 00:59:37;;;;;;;1.98;1.88;;;;;;;;;;5050446;28;20055;-80
2023/12/21 01:02:02;;;;;;;1.77;1.67;;;;;;;;;;5048243;28;20063;-81
2023/12/21 01:04:47;;;;;;;3.03;2.13;;;;;;;;;;5049790;28;20282;-82
2023/12/21 01:07:15;;;;;;;2.38;2.20;;;;;;;;;;5051277;28;20409;-80
2023/12/21 01:09:43;;;;;;;4.45;2.42;;;;;;;;;;5048036;28;20108;-79
2023/12/21 01:12:36;;;;;;;2.80;2.58;;;;;;;;;;5049155;28;20029;-78
2023/12/21 01:15:13;;;;;;;0.90;0.90;;;;;;;;;;5049234;28;20037;-81
2023/12/21 01:18:08;;;;;;;1.80;1.70;;;;;;;;;;5051497;28;20515;-81
2023/12/21 01:20:34;;;;;;;2.75;1.83;;;;;;;;;;5052177;28;20060;-81
2023/12/21 01:23:06;;;;;;;2.42;2.05;;;;;;;;;;5049702;28;20048;-78
2023/12/21 01:25:43;;;;;;;1.38;1.27;;;;;;;;;;5050715;28;20286;-80
2023/12/21 01:28:16;;;;;;;2.55;1.83;;;;;;;;;;5048646;28;20029;-81
2023/12/21 01:30:51;;;;;;;3.15;2.85;;;;;;;;;;5049747;28;20029;-79
2023/12/21 01:33:25;;;;;;;6.70;2.65;;;;;;;;;;5050657;28;20087;-79
2023/12/21 01:36:11;;;;;;;2.53;2.25;;;;;;;;;;5049544;28;20032;-79
2023/12/21 01:39:08;;;;;;;;;;;;;;;;;;;;;
2023/12/21 01:42:03;;;;;;;1.63;0.98;;;;;;;;;;5046122;28;20023;-80
2023/12/21 01:44:44;;;;;;;4.05;2.58;;;;;;;;;;5051056;28;20517;-81
2023/12/21 01:47:13;;;;;;;1.33;1.23;;;;;;;;;;5051970;28;20500;-79
2023/12/21 01:49:45;;;;;;;4.38;2.72;;;;;;;;;;5050120;28;20075;-80
2023/12/21 01:52:12;;;;;;;0.60;0.52;;;;;;;;;;5050232;28;20033;-81
2023/12/21 01:54:39;;;;;;;1.08;1.05;;;;;;;;;;5049333;28;20370;-79
2023/12/21 01:57:18;;;;;;;2.72;0.90;;;;;;;;;;5048996;28;20063;-79
2023/12/21 01:59:51;;;;;;;0.60;0.60;;;;;;;;;;5050410;28;20052;-80
2023/12/21 02:02:20;;;;;;;1.38;1.15;;;;;;;;;;5065860;28;20041;-80
2023/12/21 02:04:47;;;;;;;0.85;0.40;;;;;;;;;;5050504;28;20032;-79
2023/12/21 02:07:19;;;;;;;1.00;0.70;;;;;;;;;;5050033;28;20032;-79
2023/12/21 02:09:54;;;;;;;0.55;0.50;;;;;;;;;;5050822;28;20025;-80
2023/12/21 02:12:36;;;;;;;0.77;0.77;;;;;;;;;;5081106;28;20037;-80
2023/12/21 02:15:52;;;;;;;1.55;1.27;;;;;;;;;;5047223;28;20146;-79
2023/12/21 02:18:31;;;;;;;0.80;0.45;;;;;;;;;;4990006;28;20193;-80
2023/12/21 02:21:01;;;;;;;3.70;3.20;;;;;;;;;;5008436;28;20032;-78
2023/12/21 02:23:48;;;;;;;4.13;3.65;;;;;;;;;;5039383;28;20033;-78
2023/12/21 02:26:22;;;;;;;6.28;4.72;;;;;;;;;;5049664;28;20385;-80
2023/12/21 02:29:38;;;;;;;7.10;3.38;;;;;;;;;;5045904;28;20036;-80
2023/12/21 02:32:44;;;;;;;7.78;4.43;;;;;;;;;;5082511;28;20139;-80
2023/12/21 02:35:30;;;;;;;4.97;4.43;;;;;;;;;;5009606;28;20045;-79
2023/12/21 02:37:59;;;;;;;6.70;6.03;;;;;;;;;;5009339;28;20561;-79
2023/12/21 02:40:51;;;;;;;7.38;4.13;;;;;;;;;;5044121;28;20033;-79
2023/12/21 02:43:22;;;;;;;10.38;3.67;;;;;;;;;;5065100;28;20426;-78
2023/12/21 02:46:17;;;;;;;9.07;4.80;;;;;;;;;;5046425;28;20033;-80
2023/12/21 02:48:49;;;;;;;5.38;4.75;;;;;;;;;;5008911;28;20048;-77
2023/12/21 02:51:24;;;;;;;5.50;4.40;;;;;;;;;;5048682;28;20025;-79
2023/12/21 02:53:52;;;;;;;5.85;4.22;;;;;;;;;;5049848;28;20080;-78
2023/12/21 02:56:27;;;;;;;9.55;5.63;;;;;;;;;;5050152;28;20047;-79
2023/12/21 02:59:13;;;;;;;5.82;3.50;;;;;;;;;;5077970;28;20045;-81
2023/12/21 03:01:48;;;;;;;7.18;4.72;;;;;;;;;;5049981;28;20025;-78
2023/12/21 03:04:47;;;;;;;7.47;4.30;;;;;;;;;;5048805;28;20601;-81
2023/12/21 03:07:21;;;;;;;4.65;3.60;;;;;;;;;;5052205;28;20094;-79
2023/12/21 03:09:55;;;;;;;6.00;4.07;;;;;;;;;;5049150;28;20048;-78
2023/12/21 03:12:21;;;;;;;6.18;3.40;;;;;;;;;;5046361;28;20021;-79
2023/12/21 03:15:20;;;;;;;8.50;4.85;;;;;;;;;;5048188;28;20037;-80
2023/12/21 03:18:15;;;;;;;6.05;4.65;;;;;;;;;;5011357;28;20073;-81
2023/12/21 03:20:50;;;;;;;5.28;4.30;;;;;;;;;;5023041;28;20049;-78
2023/12/21 03:23:35;;;;;;;4.63;3.75;;;;;;;;;;5010999;28;20037;-79
2023/12/21 03:26:25;;;;;;;6.60;5.72;;;;;;;;;;5009359;28;20040;-78
2023/12/21 03:29:00;;;;;;;;;;;;;;;;;;5030528;28;20454;-80
2023/12/21 03:32:22;;;;;;;7.07;3.38;;;;;;;;;;5048171;28;19921;-78
2023/12/21 03:35:06;;;;;;;3.63;2.13;;;;;;;;;;4976456;28;20634;-79
2023/12/21 03:37:41;;;;;;;2.80;2.50;;;;;;;;;;4971824;28;20396;-78
2023/12/21 03:40:31;;;;;;;5.03;2.53;;;;;;;;;;5048443;28;20559;-80
2023/12/21 03:43:18;;;;;;;5.05;3.15;;;;;;;;;;5034782;28;20102;-81
2023/12/21 03:45:48;;;;;;;2.70;2.35;;;;;;;;;;5051361;28;20047;-83
2023/12/21 03:48:20;;;;;;;5.88;3.55;;;;;;;;;;5035077;28;20159;-80
2023/12/21 03:53:40;;;;;;;4.72;3.30;;;;;;;;;;5035240;28;20037;-79
2023/12/21 03:56:10;;;;;;;3.67;1.83;;;;;;;;;;5033521;28;20120;-81
2023/12/21 03:58:37;;;;;;;1.88;1.77;;;;;;;;;;5036843;28;20091;-81
2023/12/21 04:01:03;;;;;;;4.10;2.60;;;;;;;;;;5035571;28;20025;-82
2023/12/21 04:03:31;;;;;;;7.80;3.03;;;;;;;;;;5053034;28;20405;-81
2023/12/21 04:06:06;;;;;;;8.18;2.33;;;;;;;;;;5050467;28;20059;-81
2023/12/21 04:08:32;;;;;;;3.42;3.00;;;;;;;;;;5053088;28;20045;-81
2023/12/21 04:10:57;;;;;;;2.30;1.88;;;;;;;;;;5051741;28;20036;-82
2023/12/21 04:13:25;;;;;;;3.78;2.75;;;;;;;;;;5053753;28;20033;-82
2023/12/21 04:15:51;;;;;;;3.38;2.67;;;;;;;;;;5054501;28;20446;-80
2023/12/21 04:18:16;;;;;;;3.28;2.67;;;;;;;;;;5056165;28;20044;-81
2023/12/21 04:20:47;;;;;;;4.07;2.25;;;;;;;;;;5052691;28;20037;-81
2023/12/21 04:23:13;;;;;;;2.60;2.30;;;;;;;;;;5055725;28;20025;-80
2023/12/21 04:25:41;;;;;;;4.80;1.92;;;;;;;;;;5053971;28;20416;-81
2023/12/21 04:28:07;;;;;;;1.83;1.73;;;;;;;;;;5052912;28;20432;-79
2023/12/21 04:30:32;;;;;;;2.13;1.95;;;;;;;;;;5055460;28;20163;-79
2023/12/21 04:32:58;;;;;;;3.75;2.70;;;;;;;;;;5054291;28;20040;-80
2023/12/21 04:35:23;;;;;;;1.77;1.67;;;;;;;;;;5051317;28;20489;-82
2023/12/21 04:37:49;;;;;;;2.20;1.77;;;;;;;;;;5085628;28;20028;-81
2023/12/21 04:40:15;;;;;;;4.70;2.20;;;;;;;;;;5055749;28;20013;-80
2023/12/21 04:43:00;;;;;;;1.35;1.17;;;;;;;;;;5051990;28;20039;-80
2023/12/21 04:45:26;;;;;;;5.70;1.92;;;;;;;;;;5052919;28;20041;-81
2023/12/21 04:47:51;;;;;;;1.70;1.55;;;;;;;;;;5052059;28;20025;-80
2023/12/21 04:50:18;;;;;;;1.60;1.48;;;;;;;;;;5051719;28;20035;-79
2023/12/21 04:52:43;;;;;;;1.92;1.70;;;;;;;;;;5051196;28;20049;-79
2023/12/21 04:55:08;;;;;;;1.58;1.48;;;;;;;;;;5050236;28;20154;-82
2023/12/21 04:57:35;;;;;;;2.17;1.83;;;;;;;;;;5053593;28;20546;-79
2023/12/21 05:00:00;;;;;;;7.53;3.30;;;;;;;;;;5051214;28;20068;-82
2023/12/21 05:02:28;;;;;;;6.80;2.35;;;;;;;;;;5049864;28;20054;-80
2023/12/21 05:04:53;;;;;;;4.75;2.63;;;;;;;;;;5050788;28;20037;-81
2023/12/21 05:07:19;;;;;;;5.60;2.17;;;;;;;;;;5048860;28;20129;-80
2023/12/21 05:10:00;;;;;;;;;;;;;;;;;;;;;
2023/12/21 05:12:26;;;;;;;3.92;3.30;;;;;;;;;;5050506;28;20049;-80
2023/12/21 05:14:54;;;;;;;1.10;1.00;;;;;;;;;;5051147;28;20841;-79
2023/12/21 05:17:27;;;;;;;1.65;1.23;;;;;;;;;;5049121;28;20040;-81
2023/12/21 05:19:53;;;;;;;0.40;0.40;;;;;;;;;;5049048;28;20029;-81
2023/12/21 05:22:18;;;;;;;1.85;1.42;;;;;;;;;;5050433;28;20481;-81
2023/12/21 05:24:44;;;;;;;4.00;2.20;;;;;;;;;;5049516;28;20037;-80
2023/12/21 05:27:10;;;;;;;1.65;1.35;;;;;;;;;;5045473;28;20036;-79
2023/12/21 05:29:43;;;;;;;0.98;0.98;;;;;;;;;;5047270;28;20037;-81
2023/12/21 05:32:09;;;;;;;1.65;1.55;;;;;;;;;;5048359;28;20095;-78
2023/12/21 05:34:35;;;;;;;1.83;1.58;;;;;;;;;;5049322;28;21335;-82
2023/12/21 05:37:00;;;;;;;1.35;1.25;;;;;;;;;;5049757;28;20036;-80
2023/12/21 05:39:30;;;;;;;1.88;0.65;;;;;;;;;;5051929;28;20099;-78
2023/12/21 05:41:55;;;;;;;1.58;1.48;;;;;;;;;;5051206;28;20078;-78
2023/12/21 05:44:21;;;;;;;1.25;1.10;;;;;;;;;;5049751;28;20037;-79
2023/12/21 05:46:46;;;;;;;2.45;1.60;;;;;;;;;;5050600;28;20443;-80
2023/12/21 05:49:15;;;;;;;3.45;2.08;;;;;;;;;;5052200;28;20094;-81
2023/12/21 05:51:43;;;;;;;6.50;2.22;;;;;;;;;;5053168;28;20033;-81
2023/12/21 05:54:08;;;;;;;2.50;1.90;;;;;;;;;;5048578;28;20115;-80
2023/12/21 05:56:37;;;;;;;2.03;1.45;;;;;;;;;;5052143;28;20114;-79
2023/12/21 05:59:03;;;;;;;2.60;2.38;;;;;;;;;;5049232;28;20053;-80
2023/12/21 06:01:35;;;;;;;2.67;1.95;;;;;;;;;;5050312;28;20358;-79
2023/12/21 06:04:00;;;;;;;2.90;2.33;;;;;;;;;;5044487;28;20043;-80
2023/12/21 06:06:26;;;;;;;3.35;0.93;;;;;;;;;;5048640;28;20481;-80
2023/12/21 06:08:52;;;;;;;2.53;1.70;;;;;;;;;;5049573;28;20056;-79
2023/12/21 06:11:17;;;;;;;2.45;2.25;;;;;;;;;;5049830;28;20032;-78
2023/12/21 06:13:42;;;;;;;3.35;1.45;;;;;;;;;;5051210;28;20036;-78
2023/12/21 06:16:11;;;;;;;2.15;1.95;;;;;;;;;;5049766;28;20056;-79
2023/12/21 06:18:37;;;;;;;1.60;1.50;;;;;;;;;;5049093;28;20028;-80
2023/12/21 06:21:03;;;;;;;5.10;1.80;;;;;;;;;;5045223;28;20515;-78
2023/12/21 06:23:28;;;;;;;1.67;1.55;;;;;;;;;;5050633;28;20032;-81
2023/12/21 06:25:54;;;;;;;1.60;1.50;;;;;;;;;;5046677;28;20485;-79
2023/12/21 06:28:21;;;;;;;4.32;2.83;;;;;;;;;;5048981;28;20074;-81
2023/12/21 06:30:47;;;;;;;5.70;4.03;;;;;;;;;;5045913;28;20029;-80
2023/12/21 06:33:12;;;;;;;4.85;3.30;;;;;;;;;;5048016;28;20491;-79
2023/12/21 06:35:37;;;;;;;4.57;1.95;;;;;;;;;;5050085;28;20028;-82
2023/12/21 06:38:03;;;;;;;5.53;1.95;;;;;;;;;;5049638;28;20389;-80
2023/12/21 06:40:28;;;;;;;1.15;1.05;;;;;;;;;;5047075;28;20544;-80
2023/12/21 06:42:54;;;;;;;2.13;1.98;;;;;;;;;;5049846;28;20029;-81
2023/12/21 06:45:19;;;;;;;3.50;2.78;;;;;;;;;;5048578;28;20033;-79
2023/12/21 06:47:45;;;;;;;2.67;2.33;;;;;;;;;;5045716;28;20078;-81
2023/12/21 06:50:11;;;;;;;1.40;1.30;;;;;;;;;;5047570;28;20469;-79
2023/12/21 06:52:36;;;;;;;2.53;2.25;;;;;;;;;;5048338;28;20036;-81
2023/12/21 06:55:02;;;;;;;2.65;2.05;;;;;;;;;;5047166;28;20033;-80
2023/12/21 06:57:28;;;;;;;1.98;1.77;;;;;;;;;;5048172;28;20033;-82
2023/12/21 06:59:54;;;;;;;5.95;1.77;;;;;;;;;;5041841;28;20068;-80
2023/12/21 07:02:19;;;;;;;3.13;2.42;;;;;;;;;;5047310;28;20048;-79
2023/12/21 07:04:50;;;;;;;3.50;2.55;;;;;;;;;;5046955;28;20048;-81
2023/12/21 07:07:16;;;;;;;2.40;2.20;;;;;;;;;;5047181;28;20037;-82
2023/12/21 07:09:41;;;;;;;2.47;2.28;;;;;;;;;;5048676;28;20415;-82
2023/12/21 07:12:07;;;;;;;2.22;1.85;;;;;;;;;;5048097;28;20045;-81
2023/12/21 07:14:32;;;;;;;2.28;2.15;;;;;;;;;;5048486;28;20044;-82
2023/12/21 07:16:57;;;;;;;1.27;1.17;;;;;;;;;;5047709;28;20060;-81
2023/12/21 07:19:23;;;;;;;3.08;1.98;;;;;;;;;;5050913;28;20059;-81
2023/12/21 07:21:48;;;;;;;2.17;1.73;;;;;;;;;;5051911;28;20028;-80
2023/12/21 07:24:13;;;;;;;4.63;2.83;;;;;;;;;;5047932;28;20726;-80
2023/12/21 07:26:39;;;;;;;1.17;0.82;;;;;;;;;;5048060;28;20052;-78
2023/12/21 07:29:04;;;;;;;2.15;1.50;;;;;;;;;;5057292;28;20029;-79
2023/12/21 07:31:30;;;;;;;5.93;2.78;;;;;;;;;;5051874;28;20123;-79
2023/12/21 07:33:55;;;;;;;1.77;1.67;;;;;;;;;;5055619;28;20029;-79
2023/12/21 07:36:20;;;;;;;2.28;1.83;;;;;;;;;;5052380;28;20396;-79
2023/12/21 07:38:46;;;;;;;0.95;0.95;;;;;;;;;;5051945;28;20037;-80
2023/12/21 07:41:12;;;;;;;2.78;1.55;;;;;;;;;;5052856;28;20389;-79
2023/12/21 07:43:38;;;;;;;5.32;2.33;;;;;;;;;;5050475;28;20025;-78
2023/12/21 07:46:04;;;;;;;2.28;1.60;;;;;;;;;;5083574;28;20025;-77
2023/12/21 07:48:29;;;;;;;1.85;1.58;;;;;;;;;;5049863;28;20035;-79
2023/12/21 07:50:55;;;;;;;4.10;2.78;;;;;;;;;;5050428;28;20029;-79
2023/12/21 07:53:20;;;;;;;3.40;2.55;;;;;;;;;;5050258;28;20028;-80
2023/12/21 07:55:46;;;;;;;3.90;1.88;;;;;;;;;;5050793;28;20075;-78
2023/12/21 07:58:11;;;;;;;8.10;4.53;;;;;;;;;;5052008;28;20029;-80
2023/12/21 08:00:36;;;;;;;5.03;2.17;;;;;;;;;;5050920;28;20037;-80
2023/12/21 08:03:02;;;;;;;5.57;3.47;;;;;;;;;;5051291;28;21998;-79
2023/12/21 08:05:27;;;;;;;1.52;0.82;;;;;;;;;;5052122;28;20033;-78
2023/12/21 08:07:53;;;;;;;3.80;1.00;;;;;;;;;;5051543;28;20480;-78
2023/12/21 08:10:18;;;;;;;1.23;1.13;;;;;;;;;;5049831;28;20037;-81
2023/12/21 08:12:44;;;;;;;0.70;0.68;;;;;;;;;;5052246;28;20036;-80
2023/12/21 08:15:10;;;;;;;1.13;1.02;;;;;;;;;;5050791;28;20032;-80
2023/12/21 08:17:36;;;;;;;3.15;2.22;;;;;;;;;;5051039;28;20055;-79
2023/12/21 08:20:04;;;;;;;2.78;1.90;;;;;;;;;;5050958;28;20025;-79
2023/12/21 08:22:30;;;;;;;3.40;1.95;;;;;;;;;;5050640;28;20059;-81
2023/12/21 08:24:57;;;;;;;0.73;0.73;;;;;;;;;;5049801;28;20033;-79
2023/12/21 08:27:23;;;;;;;1.48;1.38;;;;;;;;;;5050397;28;20025;-79
2023/12/21 08:29:49;;;;;;;1.13;1.02;;;;;;;;;;5051736;28;20055;-78
2023/12/21 08:32:14;;;;;;;1.13;1.02;;;;;;;;;;5052051;28;20028;-80
2023/12/21 08:34:40;;;;;;;1.77;1.65;;;;;;;;;;5051799;28;20422;-81
2023/12/21 08:37:05;;;;;;;3.25;1.23;;;;;;;;;;5050424;28;20094;-79
2023/12/21 08:39:30;;;;;;;5.00;2.70;;;;;;;;;;5051353;28;20052;-79
2023/12/21 08:41:56;;;;;;;1.42;1.33;;;;;;;;;;5051061;28;20025;-80
2023/12/21 08:44:21;;;;;;;1.05;0.70;;;;;;;;;;5051496;28;20040;-80
2023/12/21 08:46:47;;;;;;;1.25;0.85;;;;;;;;;;5050352;28;20055;-81
2023/12/21 08:49:13;;;;;;;3.13;2.00;;;;;;;;;;5049063;28;20086;-79
2023/12/21 08:51:39;;;;;;;1.42;1.20;;;;;;;;;;5050466;28;20032;-81
2023/12/21 08:54:05;;;;;;;1.67;0.95;;;;;;;;;;5050919;28;20378;-80
2023/12/21 08:56:33;;;;;;;0.30;0.30;;;;;;;;;;5051456;28;20041;-79
2023/12/21 08:59:00;;;;;;;1.00;0.90;;;;;;;;;;5048951;28;20123;-80
2023/12/21 09:01:25;;;;;;;1.67;1.38;;;;;;;;;;5051177;28;20024;-78
2023/12/21 09:03:50;;;;;;;0.60;0.60;;;;;;;;;;5049325;28;20032;-78
2023/12/21 09:06:17;;;;;;;1.55;1.40;;;;;;;;;;5051125;28;20039;-80
2023/12/21 09:08:42;;;;;;;1.90;1.00;;;;;;;;;;5051982;28;20036;-80
2023/12/21 09:11:08;;;;;;;1.15;0.80;;;;;;;;;;5051839;28;20194;-78
2023/12/21 09:13:33;;;;;;;3.10;2.10;;;;;;;;;;5050791;28;20028;-79
2023/12/21 09:15:58;;;;;;;1.00;0.93;;;;;;;;;;5052584;28;20028;-81
2023/12/21 09:18:24;;;;;;;1.38;1.08;;;;;;;;;;5051714;28;20477;-79
2023/12/21 09:20:49;;;;;;;1.88;1.23;;;;;;;;;;5050869;28;20155;-79
2023/12/21 09:23:15;;;;;;;0.75;0.75;;;;;;;;;;5052319;28;20393;-80
2023/12/21 09:25:40;;;;;;;2.38;1.58;;;;;;;;;;5052243;28;20032;-80
2023/12/21 09:28:06;;;;;;;1.20;1.10;;;;;;;;;;5051905;28;20448;-79
2023/12/21 09:30:31;;;;;;;1.88;1.63;;;;;;;;;;5051635;28;20040;-79
2023/12/21 09:33:00;;;;;;;1.52;1.42;;;;;;;;;;5050952;28;20096;-77
2023/12/21 09:35:25;;;;;;;3.30;1.85;;;;;;;;;;5050303;28;20036;-81
2023/12/21 09:37:51;;;;;;;0.80;0.80;;;;;;;;;;5049857;28;20029;-79
2023/12/21 09:40:16;;;;;;;1.50;1.20;;;;;;;;;;5049947;28;20108;-80
2023/12/21 09:42:46;;;;;;;1.58;1.05;;;;;;;;;;5048322;28;20028;-79
2023/12/21 09:45:13;;;;;;;2.15;1.52;;;;;;;;;;5052274;28;20055;-78
2023/12/21 09:47:42;;;;;;;2.42;1.70;;;;;;;;;;5050361;28;20029;-81
2023/12/21 09:50:08;;;;;;;0.90;0.85;;;;;;;;;;5050912;28;20401;-79
2023/12/21 09:52:37;;;;;;;2.38;1.50;;;;;;;;;;5052101;28;20531;-80
2023/12/21 09:55:05;;;;;;;2.25;2.05;;;;;;;;;;5047205;28;20082;-79
2023/12/21 09:57:34;;;;;;;1.05;1.02;;;;;;;;;;5051912;28;20037;-80
2023/12/21 10:00:01;;;;;;;2.35;1.05;;;;;;;;;;5047791;28;20036;-80
2023/12/21 10:02:30;;;;;;;0.90;0.90;;;;;;;;;;5049138;28;20182;-80
2023/12/21 10:04:56;;;;;;;0.60;0.60;;;;;;;;;;5051268;28;20603;-80
2023/12/21 10:07:22;;;;;;;1.13;1.08;;;;;;;;;;5053530;28;20033;-81
2023/12/21 10:09:48;;;;;;;0.40;0.40;;;;;;;;;;5053849;28;20072;-81
2023/12/21 10:12:14;;;;;;;1.40;1.20;;;;;;;;;;5050757;28;20051;-81
2023/12/21 10:14:39;;;;;;;0.68;0.68;;;;;;;;;;5051878;28;20029;-80
2023/12/21 10:17:10;;;;;;;1.73;1.52;;;;;;;;;;5049763;28;20029;-81
2023/12/21 10:19:36;;;;;;;1.05;0.65;;;;;;;;;;5052204;28;20102;-79
2023/12/21 10:22:01;;;;;;;2.78;1.17;;;;;;;;;;5051410;28;20043;-80
2023/12/21 10:24:27;;;;;;;0.43;0.43;;;;;;;;;;5052939;28;20033;-79
2023/12/21 10:26:52;;;;;;;1.52;1.42;;;;;;;;;;5051682;28;20435;-79
2023/12/21 10:29:18;;;;;;;2.17;1.90;;;;;;;;;;5051300;28;20396;-80
2023/12/21 10:31:48;;;;;;;3.10;1.58;;;;;;;;;;5052711;28;20060;-80
2023/12/21 10:34:15;;;;;;;1.55;1.45;;;;;;;;;;5052116;28;20024;-80
2023/12/21 10:36:42;;;;;;;2.55;1.50;;;;;;;;;;5052247;28;20342;-80
2023/12/21 10:39:09;;;;;;;2.45;1.52;;;;;;;;;;5052804;28;20029;-80
2023/12/21 10:41:35;;;;;;;1.33;1.17;;;;;;;;;;5048983;28;20103;-80
2023/12/21 10:44:01;;;;;;;5.90;2.20;;;;;;;;;;5048853;28;20672;-80
2023/12/21 10:46:33;;;;;;;3.65;2.65;;;;;;;;;;5048740;28;20365;-81
2023/12/21 10:49:00;;;;;;;1.25;1.10;;;;;;;;;;5048699;28;20239;-79
2023/12/21 10:51:29;;;;;;;0.85;0.82;;;;;;;;;;5051826;28;20087;-80
2023/12/21 10:53:59;;;;;;;0.93;0.93;;;;;;;;;;5053371;28;20112;-80
2023/12/21 10:56:28;;;;;;;0.55;0.55;;;;;;;;;;5053790;28;20111;-81
2023/12/21 10:58:55;;;;;;;2.58;1.98;;;;;;;;;;5054189;28;20044;-81
2023/12/21 11:01:24;;;;;;;3.67;2.30;;;;;;;;;;5052175;28;20070;-80
2023/12/21 11:03:51;;;;;;;1.33;1.23;;;;;;;;;;5053678;28;20044;-80
2023/12/21 11:06:17;;;;;;;1.63;1.27;;;;;;;;;;5056498;28;20450;-80
2023/12/21 11:08:52;;;;;;;1.10;1.02;;;;;;;;;;5054473;28;20185;-82
2023/12/21 11:11:22;;;;;;;4.15;1.50;;;;;;;;;;5061029;28;20025;-81
2023/12/21 11:13:52;;;;;;;;;;;;;;;;;;5055150;28;20024;-80
2023/12/21 11:16:28;;;;;;;0.70;0.70;;;;;;;;;;5054400;28;20262;-81
2023/12/21 11:18:56;;;;;;;2.30;1.48;;;;;;;;;;5055171;28;20032;-80
2023/12/21 11:21:24;;;;;;;2.83;2.58;;;;;;;;;;5052316;28;20028;-82
2023/12/21 11:23:50;;;;;;;2.20;1.58;;;;;;;;;;5051874;28;20040;-81
2023/12/21 11:26:27;;;;;;;1.45;1.00;;;;;;;;;;5054590;28;20548;-80
2023/12/21 11:29:13;;;;;;;0.35;0.35;;;;;;;;;;5055986;28;20033;-80
2023/12/21 11:31:40;;;;;;;0.93;0.93;;;;;;;;;;5053439;28;20717;-79
2023/12/21 11:34:14;;;;;;;0.52;0.52;;;;;;;;;;5053871;28;20020;-81
2023/12/21 11:36:40;;;;;;;1.75;0.95;;;;;;;;;;5054375;28;20029;-83
2023/12/21 11:39:12;;;;;;;0.95;0.95;;;;;;;;;;5055358;28;20120;-81
2023/12/21 11:41:49;;;;;;;1.73;0.77;;;;;;;;;;5056484;28;20025;-82
2023/12/21 11:44:14;;;;;;;1.13;1.10;;;;;;;;;;5054222;28;20091;-80
2023/12/21 11:46:41;;;;;;;3.20;1.10;;;;;;;;;;5054690;28;20028;-81
2023/12/21 11:49:10;;;;;;;1.35;0.88;;;;;;;;;;5054615;28;20041;-80
2023/12/21 11:51:46;;;;;;;2.27;1.17;;;;;;;;;;5054990;28;20056;-82
2023/12/21 11:54:22;;;;;;;0.70;0.70;;;;;;;;;;5056389;28;20480;-82
2023/12/21 11:56:51;;;;;;;0.85;0.85;;;;;;;;;;5055261;28;20037;-81
2023/12/21 11:59:17;;;;;;;0.88;0.80;;;;;;;;;;5053922;28;20041;-82
2023/12/21 12:01:46;;;;;;;1.15;1.08;;;;;;;;;;5056357;28;20047;-80
2023/12/21 12:04:14;;;;;;;0.75;0.65;;;;;;;;;;5054340;28;20074;-81
2023/12/21 12:06:40;;;;;;;8.20;0.68;;;;;;;;;;5057072;28;20040;-78
2023/12/21 12:09:09;;;;;;;0.98;0.98;;;;;;;;;;5054789;28;20039;-80
2023/12/21 12:11:34;;;;;;;1.83;1.33;;;;;;;;;;5087928;28;20567;-81
2023/12/21 12:14:00;;;;;;;1.38;1.27;;;;;;;;;;5055285;28;20025;-81
2023/12/21 12:16:25;;;;;;;1.42;1.05;;;;;;;;;;5055372;28;20033;-80
2023/12/21 12:18:52;;;;;;;0.88;0.40;;;;;;;;;;5055106;28;20021;-83
2023/12/21 12:21:17;;;;;;;1.38;1.27;;;;;;;;;;5054480;28;20657;-83
2023/12/21 12:23:47;;;;;;;2.08;1.90;;;;;;;;;;5051993;28;20024;-81
2023/12/21 12:26:16;;;;;;;0.80;0.80;;;;;;;;;;5055182;28;20459;-81
2023/12/21 12:28:51;;;;;;;1.65;1.20;;;;;;;;;;5052092;28;20365;-83
2023/12/21 12:31:17;;;;;;;1.27;1.15;;;;;;;;;;5049900;28;20105;-80
2023/12/21 12:33:43;;;;;;;1.75;1.27;;;;;;;;;;5052025;28;20021;-83
2023/12/21 12:36:09;;;;;;;1.25;1.05;;;;;;;;;;5051756;28;20037;-82
2023/12/21 12:38:35;;;;;;;0.82;0.82;;;;;;;;;;5050992;28;20032;-82
2023/12/21 12:41:01;;;;;;;0.90;0.90;;;;;;;;;;5051484;28;20041;-80
2023/12/21 12:43:30;;;;;;;0.85;0.85;;;;;;;;;;5051931;28;20033;-80
2023/12/21 12:45:58;;;;;;;2.00;1.13;;;;;;;;;;5051673;28;20119;-80
2023/12/21 12:48:24;;;;;;;3.20;1.50;;;;;;;;;;5051256;28;20033;-81
2023/12/21 12:50:54;;;;;;;0.88;0.88;;;;;;;;;;5049469;28;20840;-81
2023/12/21 12:53:20;;;;;;;1.05;0.85;;;;;;;;;;5050985;28;20833;-82
2023/12/21 12:55:55;;;;;;;1.25;1.17;;;;;;;;;;5051028;28;20033;-82
2023/12/21 12:58:23;;;;;;;1.70;0.93;;;;;;;;;;5050219;28;20049;-79
2023/12/21 13:00:49;;;;;;;1.48;1.15;;;;;;;;;;5056351;28;20028;-80
2023/12/21 13:03:17;;;;;;;0.52;0.52;;;;;;;;;;5056348;28;20419;-82
2023/12/21 13:05:42;;;;;;;0.60;0.60;;;;;;;;;;5056501;28;20056;-82
2023/12/21 13:08:08;;;;;;;1.52;0.77;;;;;;;;;;5056213;28;20473;-81
2023/12/21 13:10:33;;;;;;;0.85;0.85;;;;;;;;;;5056769;28;20055;-80
2023/12/21 13:12:59;;;;;;;2.85;1.20;;;;;;;;;;5033324;28;20036;-79
2023/12/21 13:15:24;;;;;;;1.67;1.50;;;;;;;;;;5051907;28;20029;-81
2023/12/21 13:17:51;;;;;;;0.73;0.73;;;;;;;;;;5049684;28;20104;-81
2023/12/21 13:20:17;;;;;;;1.20;1.10;;;;;;;;;;5053526;28;20035;-82
2023/12/21 13:22:42;;;;;;;1.02;1.00;;;;;;;;;;5047289;28;20484;-81
2023/12/21 13:25:08;;;;;;;1.60;1.02;;;;;;;;;;5056419;28;20060;-81
2023/12/21 13:27:33;;;;;;;3.35;1.30;;;;;;;;;;5058154;28;20028;-81
2023/12/21 13:29:59;;;;;;;1.92;1.83;;;;;;;;;;5050720;28;20033;-80
2023/12/21 13:32:24;;;;;;;3.40;2.58;;;;;;;;;;5051188;28;20115;-81
2023/12/21 13:34:50;;;;;;;2.25;1.80;;;;;;;;;;5052007;28;20021;-81
2023/12/21 13:37:16;;;;;;;2.30;1.40;;;;;;;;;;5052033;28;20041;-80
2023/12/21 13:39:41;;;;;;;3.33;1.77;;;;;;;;;;5051505;28;20107;-80
2023/12/21 13:42:08;;;;;;;1.40;1.13;;;;;;;;;;5052983;28;20099;-82
2023/12/21 13:44:34;;;;;;;1.08;1.08;;;;;;;;;;5050685;28;20465;-80
2023/12/21 13:46:59;;;;;;;1.42;1.05;;;;;;;;;;5050992;28;20090;-81
2023/12/21 13:49:26;;;;;;;2.05;0.82;;;;;;;;;;5051917;28;20396;-79
2023/12/21 13:51:52;;;;;;;0.68;0.68;;;;;;;;;;5050112;28;20025;-80
2023/12/21 13:54:18;;;;;;;2.22;1.48;;;;;;;;;;5051807;28;20032;-81
2023/12/21 13:56:46;;;;;;;0.40;0.40;;;;;;;;;;5049550;28;20108;-81
2023/12/21 13:59:12;;;;;;;0.47;0.47;;;;;;;;;;5048305;28;20124;-79
2023/12/21 14:01:38;;;;;;;2.05;1.30;;;;;;;;;;5051342;28;20025;-78
2023/12/21 14:04:04;;;;;;;1.08;0.98;;;;;;;;;;5049449;28;20109;-80
2023/12/21 14:06:30;;;;;;;0.80;0.73;;;;;;;;;;5050110;28;20160;-80
2023/12/21 14:08:55;;;;;;;0.60;0.60;;;;;;;;;;5050204;28;20107;-81
2023/12/21 14:11:21;;;;;;;1.27;0.95;;;;;;;;;;5052410;28;20029;-80
2023/12/21 14:13:46;;;;;;;2.08;1.35;;;;;;;;;;5050109;28;20032;-81
2023/12/21 14:16:11;;;;;;;0.90;0.82;;;;;;;;;;5048661;28;20578;-79
2023/12/21 14:18:37;;;;;;;1.52;0.90;;;;;;;;;;5049709;28;20029;-80
2023/12/21 14:21:02;;;;;;;0.50;0.50;;;;;;;;;;5048626;28;20151;-81
2023/12/21 14:23:28;;;;;;;0.40;0.40;;;;;;;;;;5049079;28;20414;-81
2023/12/21 14:25:53;;;;;;;0.70;0.70;;;;;;;;;;5047436;28;20036;-80
2023/12/21 14:28:19;;;;;;;3.40;2.30;;;;;;;;;;5049464;28;20090;-79
2023/12/21 14:30:44;;;;;;;3.70;1.98;;;;;;;;;;5047545;28;20116;-79
2023/12/21 14:33:10;;;;;;;0.55;0.55;;;;;;;;;;5046955;28;20036;-82
2023/12/21 14:35:36;;;;;;;0.80;0.75;;;;;;;;;;5050604;28;20035;-82
2023/12/21 14:38:03;;;;;;;0.63;0.63;;;;;;;;;;5049317;28;20457;-81
2023/12/21 14:40:28;;;;;;;1.35;1.25;;;;;;;;;;5050993;28;20017;-80
2023/12/21 14:42:54;;;;;;;0.60;0.50;;;;;;;;;;5048897;28;20485;-80
2023/12/21 14:45:20;;;;;;;0.77;0.77;;;;;;;;;;5047965;28;20508;-80
2023/12/21 14:47:46;;;;;;;1.10;1.08;;;;;;;;;;5050780;28;20036;-80
2023/12/21 14:50:11;;;;;;;1.17;0.77;;;;;;;;;;5050015;28;20035;-80
2023/12/21 14:52:37;;;;;;;5.43;2.65;;;;;;;;;;5050167;28;20147;-79
2023/12/21 14:55:03;;;;;;;2.28;1.23;;;;;;;;;;5048900;28;20599;-81
2023/12/21 14:57:29;;;;;;;0.75;0.75;;;;;;;;;;5048120;28;20501;-82
2023/12/21 14:59:55;;;;;;;1.45;1.15;;;;;;;;;;5052773;28;20049;-79